Time;durP1;ratioP1;P1;durP2;ratioP2;P2;SDS_P1;SDS_P2;PMS_P1;PMS_P2;Temp;Humidity;BMP_temperature;BMP_pressure;BME280_temperature;BME280_humidity;BME280_pressure;Samples;Min_cycle;Max_cycle;Signal;HPM_P1;HPM_P2
2024/02/29 00:00:20;;;;;;;34.87;18.63;;;15.70;63.30;;;;;;5040990;28;20462;-78
2024/02/29 00:02:48;;;;;;;36.00;18.90;;;15.70;63.40;;;;;;5042698;28;20486;-78
2024/02/29 00:05:16;;;;;;;37.40;19.10;;;15.70;63.40;;;;;;5038233;28;20490;-77
2024/02/29 00:07:46;;;;;;;38.60;19.27;;;15.70;63.30;;;;;;5041821;28;20434;-79
2024/02/29 00:10:14;;;;;;;39.03;19.17;;;15.60;63.20;;;;;;5036997;28;20470;-78
2024/02/29 00:12:42;;;;;;;37.93;19.03;;;15.70;63.30;;;;;;5041891;28;20457;-77
2024/02/29 00:15:11;;;;;;;37.03;18.87;;;15.70;63.40;;;;;;5037982;28;20446;-80
2024/02/29 00:17:40;;;;;;;34.30;17.83;;;15.60;63.20;;;;;;5039127;28;20447;-80
2024/02/29 00:20:10;;;;;;;38.97;18.43;;;15.60;63.30;;;;;;5035372;28;20470;-78
2024/02/29 00:22:38;;;;;;;41.43;18.43;;;15.60;63.10;;;;;;5038613;28;20475;-79
2024/02/29 00:25:09;;;;;;;40.83;17.97;;;15.60;63.40;;;;;;5037536;28;20546;-79
2024/02/29 00:27:37;;;;;;;37.20;19.67;;;15.60;63.20;;;;;;5033933;28;20467;-78
2024/02/29 00:30:06;;;;;;;35.60;18.80;;;15.60;63.20;;;;;;5033926;28;20463;-79
2024/02/29 00:32:34;;;;;;;31.97;18.00;;;15.60;63.10;;;;;;5033541;28;20482;-78
2024/02/29 00:35:02;;;;;;;32.87;17.70;;;15.50;63.00;;;;;;5033276;28;20435;-81
2024/02/29 00:37:31;;;;;;;33.37;17.40;;;15.50;63.10;;;;;;5033900;28;20486;-77
2024/02/29 00:39:59;;;;;;;34.40;18.43;;;15.50;63.10;;;;;;5033708;28;20467;-79
2024/02/29 00:42:29;;;;;;;33.43;17.63;;;15.50;62.90;;;;;;5032749;28;20542;-80
2024/02/29 00:44:57;;;;;;;38.80;18.17;;;15.50;63.00;;;;;;5033129;28;20440;-78
2024/02/29 00:47:25;;;;;;;36.20;18.60;;;15.50;63.10;;;;;;5033327;28;20506;-78
2024/02/29 00:49:53;;;;;;;34.67;17.53;;;15.50;63.10;;;;;;5029387;28;20490;-81
2024/02/29 00:52:21;;;;;;;32.60;17.60;;;15.50;63.20;;;;;;5032679;28;20471;-78
2024/02/29 00:54:49;;;;;;;33.13;17.30;;;15.40;63.10;;;;;;5032763;28;20497;-79
2024/02/29 00:57:17;;;;;;;27.97;15.97;;;15.40;63.20;;;;;;5031962;28;20435;-79
2024/02/29 00:59:45;;;;;;;34.93;17.53;;;15.40;63.20;;;;;;5032773;28;20456;-78
2024/02/29 01:02:13;;;;;;;33.27;17.00;;;15.40;63.10;;;;;;5032957;28;20474;-79
2024/02/29 01:04:41;;;;;;;34.27;18.20;;;15.40;63.10;;;;;;5033523;28;20579;-79
2024/02/29 01:07:09;;;;;;;34.03;17.60;;;15.40;62.90;;;;;;5034036;28;20501;-79
2024/02/29 01:09:37;;;;;;;34.27;17.23;;;15.40;63.00;;;;;;5035547;28;20464;-79
2024/02/29 01:12:06;;;;;;;30.90;17.10;;;15.40;63.10;;;;;;5035049;28;20551;-79
2024/02/29 01:18:32;;;;;;;30.77;17.30;;;15.30;62.90;;;;;;5032270;28;20419;-79
2024/02/29 01:21:00;;;;;;;34.73;17.63;;;15.30;62.90;;;;;;5029274;28;20470;-77
2024/02/29 01:23:28;;;;;;;32.47;17.87;;;15.30;63.30;;;;;;5032355;28;20558;-80
2024/02/29 01:25:56;;;;;;;35.77;18.80;;;15.30;62.90;;;;;;5032758;28;20898;-78
2024/02/29 01:28:24;;;;;;;33.60;18.03;;;15.30;62.90;;;;;;5031724;28;20546;-79
2024/02/29 01:30:52;;;;;;;36.67;17.93;;;15.30;62.70;;;;;;5039257;28;20463;-81
2024/02/29 01:33:20;;;;;;;36.70;19.20;;;15.30;62.60;;;;;;5032424;28;20450;-78
2024/02/29 01:35:50;;;;;;;39.07;18.87;;;15.20;62.40;;;;;;5032235;28;20451;-78
2024/02/29 01:38:18;;;;;;;36.47;18.20;;;15.20;62.50;;;;;;5032049;28;20547;-79
2024/02/29 01:40:46;;;;;;;34.03;17.30;;;15.20;62.30;;;;;;5030908;28;20541;-79
2024/02/29 01:43:14;;;;;;;35.77;19.63;;;15.20;62.40;;;;;;5030712;28;20474;-79
2024/02/29 01:45:43;;;;;;;38.40;18.93;;;15.20;62.00;;;;;;5029362;28;20462;-78
2024/02/29 01:48:10;;;;;;;32.93;17.90;;;15.20;61.90;;;;;;5030685;28;20469;-79
2024/02/29 01:50:38;;;;;;;36.13;18.93;;;15.10;62.00;;;;;;5030740;28;20551;-79
2024/02/29 01:53:08;;;;;;;30.90;17.30;;;15.20;62.00;;;;;;5030764;28;20506;-78
2024/02/29 01:55:37;;;;;;;34.40;18.23;;;15.10;61.80;;;;;;5031884;28;20448;-77
2024/02/29 01:58:05;;;;;;;35.93;18.33;;;15.10;61.70;;;;;;5030063;28;20538;-78
2024/02/29 02:00:33;;;;;;;32.27;18.53;;;15.10;61.80;;;;;;5011075;28;20539;-80
2024/02/29 02:03:01;;;;;;;34.13;18.13;;;15.10;61.40;;;;;;5011781;28;20440;-81
2024/02/29 02:05:29;;;;;;;35.07;18.60;;;15.10;61.60;;;;;;5012178;28;20535;-79
2024/02/29 02:07:56;;;;;;;38.20;18.83;;;15.10;61.50;;;;;;5012246;28;20440;-78
2024/02/29 02:10:26;;;;;;;35.77;18.97;;;15.10;61.40;;;;;;5011811;28;20496;-79
2024/02/29 02:12:54;;;;;;;36.97;19.07;;;15.10;61.50;;;;;;5019198;28;20455;-79
2024/02/29 02:15:22;;;;;;;33.60;17.33;;;15.00;61.30;;;;;;5031661;28;20463;-79
2024/02/29 02:17:50;;;;;;;35.00;18.50;;;15.00;61.20;;;;;;5031540;28;20543;-79
2024/02/29 02:20:20;;;;;;;37.07;19.30;;;15.00;61.00;;;;;;5031110;28;20474;-80
2024/02/29 02:22:48;;;;;;;34.83;17.90;;;15.00;60.80;;;;;;5031929;28;20539;-78
2024/02/29 02:25:16;;;;;;;36.20;19.67;;;15.00;60.80;;;;;;5031692;28;20471;-79
2024/02/29 02:27:45;;;;;;;42.60;21.00;;;15.00;60.70;;;;;;5031333;28;20447;-79
2024/02/29 02:30:13;;;;;;;40.00;20.83;;;15.00;60.60;;;;;;5030197;28;20471;-79
2024/02/29 02:32:41;;;;;;;38.23;20.00;;;14.90;60.60;;;;;;5031527;28;20450;-77
2024/02/29 02:35:10;;;;;;;39.57;20.87;;;15.00;60.70;;;;;;5031307;28;20447;-78
2024/02/29 02:37:40;;;;;;;38.57;21.17;;;14.90;60.40;;;;;;5030266;28;20530;-78
2024/02/29 02:43:49;;;;;;;40.00;20.70;;;15.00;60.40;;;;;;5023098;28;20474;-79
2024/02/29 02:46:17;;;;;;;35.57;20.20;;;14.90;60.30;;;;;;5030285;28;20466;-81
2024/02/29 02:48:45;;;;;;;37.80;20.70;;;14.90;60.50;;;;;;5030924;28;20444;-81
2024/02/29 02:51:14;;;;;;;42.30;20.90;;;14.90;60.50;;;;;;5031126;28;20458;-80
2024/02/29 02:53:43;;;;;;;34.00;19.50;;;14.90;60.20;;;;;;5030993;28;20557;-78
2024/02/29 02:56:11;;;;;;;34.93;18.80;;;14.90;60.20;;;;;;5030912;28;20463;-79
2024/02/29 02:58:39;;;;;;;38.90;20.13;;;14.90;60.30;;;;;;5029649;28;20506;-79
2024/02/29 03:01:07;;;;;;;39.90;21.03;;;14.90;60.20;;;;;;5033028;28;20884;-79
2024/02/29 03:03:35;;;;;;;36.60;19.70;;;14.90;60.20;;;;;;5032761;28;20449;-79
2024/02/29 03:06:03;;;;;;;35.10;18.97;;;14.90;59.90;;;;;;5033639;28;20489;-80
2024/02/29 03:08:31;;;;;;;38.50;20.40;;;14.90;60.20;;;;;;5034156;28;20427;-79
2024/02/29 03:11:00;;;;;;;33.67;19.20;;;14.90;60.00;;;;;;5032646;28;20536;-79
2024/02/29 03:13:28;;;;;;;35.93;19.17;;;14.90;60.00;;;;;;5034227;28;20450;-82
2024/02/29 03:15:56;;;;;;;35.40;19.60;;;14.80;60.10;;;;;;5033664;28;20519;-80
2024/02/29 03:18:25;;;;;;;35.90;18.67;;;14.80;59.90;;;;;;5035436;28;20443;-80
2024/02/29 03:20:53;;;;;;;34.30;18.87;;;14.80;59.90;;;;;;5029744;28;20475;-79
2024/02/29 03:23:21;;;;;;;34.10;18.87;;;14.80;59.70;;;;;;5035397;28;20443;-80
2024/02/29 03:25:49;;;;;;;36.30;19.10;;;14.80;59.70;;;;;;5036891;28;20509;-82
2024/02/29 03:28:19;;;;;;;34.20;19.10;;;14.80;59.80;;;;;;5035493;28;20455;-81
2024/02/29 03:30:47;;;;;;;37.10;19.50;;;14.80;59.70;;;;;;5033610;28;20521;-79
2024/02/29 03:33:15;;;;;;;33.87;18.80;;;14.80;59.80;;;;;;5031584;28;20447;-79
2024/02/29 03:35:43;;;;;;;33.17;19.27;;;14.80;59.70;;;;;;5034725;28;20530;-80
2024/02/29 03:38:12;;;;;;;34.10;18.80;;;14.80;59.80;;;;;;5035082;28;20515;-79
2024/02/29 03:40:39;;;;;;;30.40;17.17;;;14.80;59.80;;;;;;5034450;28;20455;-79
2024/02/29 03:43:07;;;;;;;30.13;17.67;;;14.70;59.80;;;;;;5033445;28;20871;-79
2024/02/29 03:45:37;;;;;;;32.40;17.60;;;14.80;59.80;;;;;;5033200;28;20566;-80
2024/02/29 03:48:05;;;;;;;29.87;16.70;;;14.80;59.90;;;;;;5032242;28;20463;-79
2024/02/29 03:50:33;;;;;;;30.53;17.03;;;14.80;59.80;;;;;;5033167;28;21041;-78
2024/02/29 03:53:02;;;;;;;29.80;16.20;;;14.80;59.70;;;;;;5033673;28;20542;-79
2024/02/29 03:55:30;;;;;;;26.00;15.03;;;14.70;59.60;;;;;;5033713;28;20443;-79
2024/02/29 03:57:58;;;;;;;28.03;16.40;;;14.80;59.50;;;;;;5032154;28;20513;-80
2024/02/29 04:00:26;;;;;;;29.77;16.83;;;14.80;59.40;;;;;;5032065;28;20452;-78
2024/02/29 04:02:55;;;;;;;30.37;17.10;;;14.70;59.40;;;;;;5030565;28;20446;-78
2024/02/29 04:05:24;;;;;;;30.47;16.87;;;14.70;59.40;;;;;;5033350;28;20563;-78
2024/02/29 04:07:56;;;;;;;29.17;16.43;;;14.70;59.30;;;;;;5033314;28;20470;-79
2024/02/29 04:10:27;;;;;;;26.30;15.40;;;14.70;59.40;;;;;;5030649;28;20463;-78
2024/02/29 04:12:55;;;;;;;27.90;15.90;;;14.70;59.40;;;;;;5032914;28;20439;-78
2024/02/29 04:15:23;;;;;;;27.73;16.43;;;14.70;59.20;;;;;;5031074;28;20448;-79
2024/02/29 04:17:51;;;;;;;28.60;15.10;;;14.70;59.20;;;;;;5032995;28;21025;-79
2024/02/29 04:20:21;;;;;;;28.43;15.37;;;14.70;59.20;;;;;;5032595;28;20466;-80
2024/02/29 04:22:49;;;;;;;26.50;15.20;;;14.70;59.30;;;;;;5033320;28;20515;-78
2024/02/29 04:25:22;;;;;;;24.00;14.20;;;14.70;59.40;;;;;;5031617;28;20503;-78
2024/02/29 04:27:50;;;;;;;23.70;13.43;;;14.70;59.30;;;;;;5025406;28;20454;-79
2024/02/29 04:30:18;;;;;;;25.27;14.80;;;14.70;59.20;;;;;;5032706;28;20447;-78
2024/02/29 04:32:46;;;;;;;28.70;14.60;;;14.80;59.30;;;;;;5023086;28;20466;-78
2024/02/29 04:35:14;;;;;;;23.77;13.90;;;14.70;59.10;;;;;;5027475;28;20829;-80
2024/02/29 04:37:44;;;;;;;23.90;13.70;;;14.70;59.00;;;;;;5032401;28;20475;-78
2024/02/29 04:40:12;;;;;;;25.03;14.37;;;14.70;58.80;;;;;;5032327;28;20562;-79
2024/02/29 04:42:40;;;;;;;24.00;13.57;;;14.70;58.80;;;;;;5032083;28;20444;-78
2024/02/29 04:45:10;;;;;;;26.23;15.10;;;14.70;58.90;;;;;;5025438;28;20501;-78
2024/02/29 04:47:38;;;;;;;22.17;12.83;;;14.70;58.80;;;;;;5032084;28;20547;-78
2024/02/29 04:50:07;;;;;;;25.43;14.33;;;14.70;58.70;;;;;;5031237;28;20478;-77
2024/02/29 04:52:34;;;;;;;20.97;12.93;;;14.60;58.60;;;;;;5031914;28;20443;-79
2024/02/29 04:55:04;;;;;;;27.50;14.90;;;14.60;58.50;;;;;;5032849;28;20530;-78
2024/02/29 04:57:32;;;;;;;24.17;13.37;;;14.60;58.40;;;;;;5032631;28;20498;-80
2024/02/29 05:00:00;;;;;;;25.10;13.97;;;14.60;58.30;;;;;;5024224;28;20467;-78
2024/02/29 05:02:28;;;;;;;22.00;13.03;;;14.60;58.30;;;;;;5032243;28;20542;-79
2024/02/29 05:04:57;;;;;;;21.60;12.60;;;14.60;58.10;;;;;;5031869;28;20566;-78
2024/02/29 05:07:25;;;;;;;21.50;12.10;;;14.60;58.10;;;;;;5031985;28;20483;-79
2024/02/29 05:09:54;;;;;;;21.33;12.10;;;14.60;58.10;;;;;;5031987;28;20495;-79
2024/02/29 05:12:26;;;;;;;23.17;12.93;;;14.60;58.10;;;;;;5031944;28;20443;-78
2024/02/29 05:14:54;;;;;;;19.90;12.60;;;14.60;58.10;;;;;;5026027;28;20667;-80
2024/02/29 05:17:22;;;;;;;23.20;12.40;;;14.60;58.20;;;;;;5033163;28;20550;-79
2024/02/29 05:19:51;;;;;;;20.70;12.37;;;14.60;57.90;;;;;;5026759;28;20558;-79
2024/02/29 05:22:19;;;;;;;21.00;12.40;;;14.60;58.10;;;;;;5033442;28;20440;-81
2024/02/29 05:24:47;;;;;;;24.80;13.50;;;14.60;58.10;;;;;;5027386;28;20450;-78
2024/02/29 05:27:15;;;;;;;22.63;13.00;;;14.60;58.00;;;;;;5032630;28;20432;-79
2024/02/29 05:29:44;;;;;;;19.03;11.70;;;14.60;57.90;;;;;;5044260;22;20480;-75
2024/02/29 05:32:12;;;;;;;19.17;11.63;;;14.60;57.90;;;;;;4999397;28;20516;-76
2024/02/29 05:34:46;;;;;;;19.70;11.07;;;14.60;58.00;;;;;;5003645;28;20475;-76
2024/02/29 05:37:13;;;;;;;17.23;11.03;;;14.60;57.80;;;;;;5004521;28;20476;-75
2024/02/29 05:39:42;;;;;;;20.07;11.57;;;14.60;57.80;;;;;;5013151;28;20460;-76
2024/02/29 05:42:11;;;;;;;17.73;11.10;;;14.60;57.80;;;;;;5017631;28;20437;-75
2024/02/29 05:44:39;;;;;;;20.67;11.67;;;14.60;57.70;;;;;;5011834;28;20440;-75
2024/02/29 05:47:09;;;;;;;18.63;11.20;;;14.60;57.80;;;;;;5011396;28;20486;-75
2024/02/29 05:49:37;;;;;;;18.70;11.57;;;14.60;57.60;;;;;;5010884;28;20492;-75
2024/02/29 05:52:06;;;;;;;17.53;10.33;;;14.60;57.50;;;;;;5006043;28;20524;-73
2024/02/29 05:54:34;;;;;;;16.13;9.97;;;14.60;57.60;;;;;;5010025;28;20547;-74
2024/02/29 05:57:01;;;;;;;18.13;10.93;;;14.60;57.60;;;;;;5021955;28;20432;-74
2024/02/29 05:59:33;;;;;;;16.10;9.87;;;14.70;57.70;;;;;;5030419;28;20486;-75
2024/02/29 06:02:00;;;;;;;16.00;10.00;;;14.60;57.50;;;;;;5019631;28;20509;-75
2024/02/29 06:04:30;;;;;;;14.80;9.97;;;14.60;57.40;;;;;;5027735;28;20485;-75
2024/02/29 06:06:58;;;;;;;17.00;10.60;;;14.70;57.40;;;;;;5030990;28;20510;-74
2024/02/29 06:09:26;;;;;;;16.17;10.17;;;14.60;57.30;;;;;;5031225;28;20459;-76
2024/02/29 06:11:54;;;;;;;18.13;9.93;;;14.60;57.30;;;;;;5031293;28;20471;-76
2024/02/29 06:14:24;;;;;;;18.40;10.43;;;14.60;57.30;;;;;;5031172;28;20461;-75
2024/02/29 06:16:52;;;;;;;13.47;9.33;;;14.60;57.20;;;;;;5030916;28;20447;-75
2024/02/29 06:19:20;;;;;;;17.30;10.13;;;14.60;57.20;;;;;;5019274;28;20472;-73
2024/02/29 06:21:50;;;;;;;17.70;9.57;;;14.60;57.10;;;;;;5030840;28;20439;-74
2024/02/29 06:24:18;;;;;;;17.10;10.70;;;14.70;57.20;;;;;;5031094;28;20448;-75
2024/02/29 06:26:47;;;;;;;15.60;9.23;;;14.70;57.10;;;;;;5031062;28;20521;-77
2024/02/29 06:29:15;;;;;;;16.73;9.63;;;14.70;56.90;;;;;;5031139;28;20471;-76
2024/02/29 06:31:43;;;;;;;14.10;9.60;;;14.70;57.00;;;;;;5031416;28;20451;-76
2024/02/29 06:34:11;;;;;;;16.77;9.47;;;14.70;56.70;;;;;;5026319;28;20552;-76
2024/02/29 06:36:40;;;;;;;13.13;8.70;;;14.70;56.60;;;;;;5020356;28;20445;-76
2024/02/29 06:39:09;;;;;;;13.53;8.97;;;14.70;57.10;;;;;;5031008;28;20459;-76
2024/02/29 06:41:38;;;;;;;12.83;8.60;;;14.70;56.40;;;;;;5031067;28;20440;-76
2024/02/29 06:44:07;;;;;;;16.73;8.60;;;14.70;56.30;;;;;;5030812;28;20424;-76
2024/02/29 06:46:35;;;;;;;12.93;8.70;;;14.70;56.20;;;;;;5030593;28;20499;-76
2024/02/29 06:49:04;;;;;;;12.37;8.40;;;14.70;56.00;;;;;;5034335;28;20442;-76
2024/02/29 06:51:33;;;;;;;19.03;10.17;;;14.80;56.10;;;;;;5027813;28;20459;-78
2024/02/29 06:54:02;;;;;;;15.40;9.87;;;14.80;56.00;;;;;;5022515;28;20444;-76
2024/02/29 06:56:31;;;;;;;13.20;8.83;;;14.80;55.90;;;;;;5014863;28;20460;-76
2024/02/29 06:58:59;;;;;;;15.27;8.70;;;14.90;56.60;;;;;;5014813;28;20527;-75
2024/02/29 07:01:30;;;;;;;13.90;9.10;;;14.90;55.90;;;;;;5012829;28;20464;-76
2024/02/29 07:03:58;;;;;;;14.20;8.83;;;14.90;55.80;;;;;;5022796;28;20448;-76
2024/02/29 07:06:26;;;;;;;14.53;8.60;;;14.90;55.80;;;;;;5009615;28;20511;-75
2024/02/29 07:08:54;;;;;;;15.93;8.70;;;14.90;55.60;;;;;;5014938;28;20483;-75
2024/02/29 07:11:22;;;;;;;13.77;9.00;;;15.00;55.50;;;;;;5015055;28;20539;-76
2024/02/29 07:13:52;;;;;;;15.47;8.90;;;15.00;55.30;;;;;;5015326;28;20459;-76
2024/02/29 07:16:20;;;;;;;12.50;8.00;;;15.00;55.30;;;;;;5014994;28;20448;-76
2024/02/29 07:18:48;;;;;;;15.30;8.80;;;15.00;55.20;;;;;;5023134;28;20464;-76
2024/02/29 07:21:16;;;;;;;14.10;8.87;;;15.00;55.20;;;;;;5025699;28;20439;-74
2024/02/29 07:23:45;;;;;;;13.13;8.53;;;15.00;55.00;;;;;;5034056;28;20447;-76
2024/02/29 07:26:13;;;;;;;14.53;8.77;;;15.10;55.00;;;;;;5033790;28;20545;-76
2024/02/29 07:28:41;;;;;;;11.73;8.07;;;15.10;54.90;;;;;;5034093;28;20498;-76
2024/02/29 07:31:11;;;;;;;13.87;8.03;;;15.10;54.90;;;;;;5034152;28;20479;-75
2024/02/29 07:33:40;;;;;;;13.30;8.90;;;15.20;54.90;;;;;;5030174;28;20464;-76
2024/02/29 07:36:07;;;;;;;12.73;8.17;;;15.20;54.80;;;;;;5025104;28;20439;-76
2024/02/29 07:38:35;;;;;;;14.13;7.87;;;15.30;54.80;;;;;;5029830;28;20541;-76
2024/02/29 07:41:03;;;;;;;12.07;7.60;;;15.30;54.90;;;;;;5012361;28;20534;-77
2024/02/29 07:43:31;;;;;;;11.10;7.63;;;15.30;54.80;;;;;;5024728;28;20469;-75
2024/02/29 07:45:59;;;;;;;12.20;7.97;;;15.30;54.60;;;;;;5027893;28;20526;-76
2024/02/29 07:48:29;;;;;;;11.40;7.70;;;15.40;54.60;;;;;;5025460;28;20416;-76
2024/02/29 07:50:57;;;;;;;13.60;8.30;;;15.40;54.40;;;;;;5022323;28;20563;-76
2024/02/29 07:53:25;;;;;;;14.90;8.60;;;15.50;54.50;;;;;;5018763;28;20448;-76
2024/02/29 07:55:53;;;;;;;11.70;8.10;;;15.50;54.50;;;;;;5013580;28;20479;-76
2024/02/29 07:58:22;;;;;;;14.37;8.20;;;15.60;54.40;;;;;;5013702;28;20444;-74
2024/02/29 08:00:50;;;;;;;10.80;7.53;;;15.60;54.40;;;;;;5013287;28;20460;-76
2024/02/29 08:03:18;;;;;;;12.27;7.90;;;15.60;54.20;;;;;;5017265;28;20455;-76
2024/02/29 08:05:48;;;;;;;11.70;7.43;;;15.60;54.20;;;;;;5024998;28;20470;-76
2024/02/29 08:08:15;;;;;;;11.67;7.47;;;15.70;54.00;;;;;;5033105;28;20475;-76
2024/02/29 08:10:43;;;;;;;11.80;7.53;;;15.70;53.80;;;;;;5032508;28;20543;-76
2024/02/29 08:13:11;;;;;;;11.67;7.57;;;15.70;53.80;;;;;;5014069;28;20533;-76
2024/02/29 08:15:39;;;;;;;12.37;8.03;;;15.80;53.80;;;;;;5009761;28;20440;-76
2024/02/29 08:18:07;;;;;;;10.63;7.23;;;15.80;53.80;;;;;;5011861;28;20451;-76
2024/02/29 08:20:35;;;;;;;10.83;7.63;;;15.80;53.80;;;;;;5023735;28;20463;-76
2024/02/29 08:23:05;;;;;;;12.40;8.10;;;15.90;53.60;;;;;;5032172;28;20447;-76
2024/02/29 08:25:33;;;;;;;12.13;8.50;;;15.90;53.80;;;;;;5032266;28;20482;-76
2024/02/29 08:28:01;;;;;;;14.40;7.57;;;15.90;53.60;;;;;;5032844;28;20529;-76
2024/02/29 08:30:29;;;;;;;18.67;7.70;;;16.00;53.60;;;;;;5027342;28;20468;-76
2024/02/29 08:32:57;;;;;;;12.30;8.30;;;16.10;53.60;;;;;;5012455;28;20464;-76
2024/02/29 08:35:25;;;;;;;11.10;7.40;;;16.10;53.30;;;;;;4999787;28;20461;-75
2024/02/29 08:37:53;;;;;;;10.00;7.00;;;16.10;53.40;;;;;;5006248;28;20441;-76
2024/02/29 08:40:26;;;;;;;11.40;7.90;;;16.20;53.50;;;;;;5005579;28;20468;-76
2024/02/29 08:42:53;;;;;;;9.17;6.90;;;16.20;53.50;;;;;;5001689;28;20534;-76
2024/02/29 08:45:22;;;;;;;15.20;7.10;;;16.30;53.40;;;;;;4993103;28;20438;-75
2024/02/29 08:47:50;;;;;;;10.20;7.20;;;16.30;53.30;;;;;;5000742;28;20596;-77
2024/02/29 08:50:18;;;;;;;10.33;7.17;;;16.30;53.20;;;;;;5002186;28;20456;-77
2024/02/29 08:52:46;;;;;;;9.87;7.13;;;16.40;53.20;;;;;;5001854;28;20543;-78
2024/02/29 08:55:15;;;;;;;10.00;6.97;;;16.40;53.10;;;;;;5005233;28;20467;-78
2024/02/29 08:57:44;;;;;;;10.13;7.37;;;16.40;53.10;;;;;;5001705;28;20445;-77
2024/02/29 09:00:16;;;;;;;11.30;7.60;;;16.40;53.00;;;;;;5010638;23;20484;-77
2024/02/29 09:02:47;;;;;;;11.40;7.93;;;16.50;52.80;;;;;;5011529;28;20510;-77
2024/02/29 09:05:15;;;;;;;13.40;8.27;;;16.50;52.70;;;;;;5013684;28;20944;-78
2024/02/29 09:07:43;;;;;;;10.80;7.13;;;16.60;52.80;;;;;;5012441;28;20464;-76
2024/02/29 09:10:12;;;;;;;10.17;7.00;;;16.60;52.70;;;;;;5009635;28;20488;-77
2024/02/29 09:12:40;;;;;;;11.13;7.77;;;16.60;52.60;;;;;;5005379;28;20436;-77
2024/02/29 09:15:10;;;;;;;10.00;7.37;;;16.70;52.50;;;;;;5013228;28;20445;-77
2024/02/29 09:17:38;;;;;;;14.00;9.10;;;16.70;52.30;;;;;;5013516;28;20460;-76
2024/02/29 09:20:07;;;;;;;17.07;9.73;;;16.50;49.00;;;;;;5000153;28;20496;-76
2024/02/29 09:22:35;;;;;;;19.07;10.10;;;14.30;49.10;;;;;;5003467;28;20432;-75
2024/02/29 09:25:04;;;;;;;15.73;9.83;;;12.30;52.50;;;;;;4995312;28;20469;-75
2024/02/29 09:27:32;;;;;;;17.67;9.70;;;11.70;54.00;;;;;;4993026;28;20473;-76
2024/02/29 09:30:00;;;;;;;16.30;9.37;;;11.50;55.50;;;;;;5012948;28;20480;-76
2024/02/29 09:32:29;;;;;;;15.10;9.43;;;12.50;57.80;;;;;;5008140;28;20495;-78
2024/02/29 09:34:57;;;;;;;13.43;8.67;;;13.50;55.80;;;;;;5013401;28;20442;-77
2024/02/29 09:37:25;;;;;;;14.60;8.20;;;14.30;54.00;;;;;;5016785;28;20491;-79
2024/02/29 09:39:53;;;;;;;17.53;8.30;;;14.90;52.80;;;;;;5011061;28;20468;-78
2024/02/29 09:42:22;;;;;;;14.27;7.73;;;15.30;51.90;;;;;;4998265;28;20491;-79
2024/02/29 09:44:50;;;;;;;12.63;7.40;;;15.60;51.20;;;;;;5010294;28;20449;-79
2024/02/29 09:47:22;;;;;;;10.60;7.23;;;15.90;50.90;;;;;;5004096;28;20455;-78
2024/02/29 09:49:52;;;;;;;12.20;7.30;;;16.20;50.60;;;;;;5003954;28;20520;-78
2024/02/29 09:52:31;;;;;;;10.40;7.23;;;16.50;50.40;;;;;;5000347;28;20456;-78
2024/02/29 09:55:03;;;;;;;13.80;7.07;;;16.70;50.10;;;;;;5000483;28;20462;-78
2024/02/29 09:57:32;;;;;;;9.97;6.67;;;17.00;50.20;;;;;;4998339;28;20525;-78
2024/02/29 10:00:00;;;;;;;11.40;6.90;;;17.20;50.00;;;;;;5012647;28;20465;-78
2024/02/29 10:02:28;;;;;;;10.87;6.33;;;17.40;50.00;;;;;;5006514;28;21045;-78
2024/02/29 10:04:58;;;;;;;9.30;6.23;;;17.60;49.90;;;;;;5013205;28;20452;-78
2024/02/29 10:07:26;;;;;;;9.90;6.13;;;17.80;49.90;;;;;;5004402;28;20510;-78
2024/02/29 10:09:55;;;;;;;8.17;6.50;;;18.00;49.70;;;;;;5003383;28;20469;-78
2024/02/29 10:12:23;;;;;;;8.70;6.23;;;18.10;49.80;;;;;;4994625;28;20484;-78
2024/02/29 10:14:58;;;;;;;8.23;5.30;;;18.20;49.80;;;;;;5000536;28;20452;-78
2024/02/29 10:17:26;;;;;;;7.20;5.43;;;18.30;49.60;;;;;;5000298;28;20452;-81
2024/02/29 10:19:54;;;;;;;7.80;5.23;;;18.40;49.80;;;;;;5000746;28;21069;-78
2024/02/29 10:22:23;;;;;;;12.17;5.40;;;18.60;49.80;;;;;;4995703;28;20464;-78
2024/02/29 10:24:54;;;;;;;7.13;5.20;;;18.70;49.70;;;;;;5007877;28;20439;-78
2024/02/29 10:27:23;;;;;;;6.60;4.60;;;18.80;49.80;;;;;;5006834;28;20508;-76
2024/02/29 10:29:51;;;;;;;5.67;5.07;;;18.90;49.70;;;;;;5005838;28;20496;-79
2024/02/29 10:32:21;;;;;;;12.73;5.40;;;18.90;49.40;;;;;;5001674;28;20495;-79
2024/02/29 10:34:49;;;;;;;5.67;4.90;;;18.90;49.30;;;;;;5006829;28;20445;-78
2024/02/29 10:37:18;;;;;;;7.43;4.83;;;19.00;49.40;;;;;;5003104;28;20456;-77
2024/02/29 10:39:47;;;;;;;4.70;4.20;;;19.00;49.30;;;;;;5006732;28;20459;-79
2024/02/29 10:42:16;;;;;;;5.93;4.97;;;19.00;49.40;;;;;;5009083;28;20872;-79
2024/02/29 10:44:44;;;;;;;8.33;4.50;;;19.00;49.50;;;;;;4997084;28;20503;-79
2024/02/29 10:47:13;;;;;;;8.17;4.60;;;19.00;49.60;;;;;;4999952;28;20809;-77
2024/02/29 10:49:45;;;;;;;7.87;4.33;;;19.00;49.80;;;;;;5003552;28;20534;-79
2024/02/29 10:52:16;;;;;;;4.33;3.93;;;19.00;49.50;;;;;;5009193;28;20452;-78
2024/02/29 10:54:50;;;;;;;4.20;3.80;;;19.00;49.40;;;;;;5002297;28;20531;-76
2024/02/29 10:57:22;;;;;;;4.43;4.00;;;19.10;49.40;;;;;;5016440;28;20459;-78
2024/02/29 10:59:52;;;;;;;6.97;4.40;;;19.10;49.50;;;;;;5000238;28;20555;-77
2024/02/29 11:02:20;;;;;;;5.63;4.23;;;19.20;49.20;;;;;;5004378;28;20531;-78
2024/02/29 11:04:48;;;;;;;6.40;4.17;;;19.10;49.20;;;;;;4996309;28;20437;-78
2024/02/29 11:07:16;;;;;;;7.57;3.80;;;19.10;49.10;;;;;;5002683;28;20448;-78
2024/02/29 11:09:45;;;;;;;3.83;3.53;;;19.10;49.10;;;;;;5000818;28;20482;-77
2024/02/29 11:12:17;;;;;;;3.77;3.33;;;19.10;49.20;;;;;;5001240;28;20445;-77
2024/02/29 11:14:48;;;;;;;4.80;4.07;;;19.10;49.20;;;;;;5003439;28;20511;-77
2024/02/29 11:17:17;;;;;;;4.57;3.80;;;19.00;49.10;;;;;;5004906;28;20507;-77
2024/02/29 11:19:45;;;;;;;4.40;3.50;;;18.90;49.10;;;;;;5003039;28;20531;-76
2024/02/29 11:22:31;;;;;;;4.90;3.77;;;18.90;49.50;;;;;;5000317;28;20436;-77
2024/02/29 11:25:00;;;;;;;5.53;3.73;;;18.80;49.40;;;;;;5008914;28;20440;-77
2024/02/29 11:27:31;;;;;;;3.47;3.27;;;18.80;49.70;;;;;;5012513;28;20446;-76
2024/02/29 11:30:00;;;;;;;5.00;3.87;;;18.80;49.60;;;;;;5014329;23;20578;-77
2024/02/29 11:32:31;;;;;;;4.87;4.27;;;18.80;49.70;;;;;;5005028;28;20471;-78
2024/02/29 11:35:00;;;;;;;3.80;3.50;;;18.80;49.80;;;;;;4996315;28;20461;-79
2024/02/29 11:37:29;;;;;;;5.07;3.60;;;18.80;49.80;;;;;;4999762;28;20511;-78
2024/02/29 11:40:04;;;;;;;6.43;3.67;;;18.80;49.90;;;;;;5001520;28;20457;-77
2024/02/29 11:42:37;;;;;;;3.57;3.27;;;18.80;49.90;;;;;;4993810;28;20496;-78
2024/02/29 11:45:07;;;;;;;4.70;3.90;;;18.80;50.00;;;;;;4994308;28;20449;-78
2024/02/29 11:47:35;;;;;;;3.90;3.47;;;18.80;50.80;;;;;;4993592;28;20484;-77
2024/02/29 11:50:05;;;;;;;3.83;3.40;;;18.70;50.20;;;;;;4993951;28;20505;-77
2024/02/29 11:52:35;;;;;;;4.70;3.33;;;18.70;50.20;;;;;;4994525;28;20475;-77
2024/02/29 11:55:04;;;;;;;5.50;3.50;;;18.70;50.30;;;;;;4994286;28;20449;-77
2024/02/29 11:57:34;;;;;;;4.80;3.50;;;18.80;50.50;;;;;;4994651;28;20452;-78
2024/02/29 12:00:01;;;;;;;5.00;3.40;;;18.80;50.40;;;;;;4994292;28;20557;-76
2024/02/29 12:02:30;;;;;;;3.70;3.37;;;18.80;50.70;;;;;;4994651;28;20523;-77
2024/02/29 12:04:58;;;;;;;4.73;3.80;;;18.80;50.70;;;;;;4994340;28;20424;-78
2024/02/29 12:07:26;;;;;;;4.67;3.60;;;18.80;50.60;;;;;;4994329;28;20447;-76
2024/02/29 12:09:54;;;;;;;4.90;3.77;;;18.80;50.60;;;;;;4993755;28;21054;-78
2024/02/29 12:12:22;;;;;;;4.10;3.67;;;18.80;50.50;;;;;;4993922;28;20456;-77
2024/02/29 12:14:52;;;;;;;4.10;3.70;;;18.80;50.60;;;;;;4994262;28;20441;-77
2024/02/29 12:17:20;;;;;;;4.00;3.60;;;18.80;50.60;;;;;;4994133;28;20500;-77
2024/02/29 12:19:48;;;;;;;8.80;4.20;;;18.80;50.70;;;;;;4994268;28;20496;-77
2024/02/29 12:22:16;;;;;;;4.87;3.20;;;18.80;50.90;;;;;;4993516;28;20459;-77
2024/02/29 12:24:44;;;;;;;3.90;3.60;;;18.80;50.70;;;;;;4993583;28;20881;-77
2024/02/29 12:27:12;;;;;;;4.07;3.67;;;18.80;50.80;;;;;;4994093;28;20437;-78
2024/02/29 12:29:41;;;;;;;3.77;3.47;;;18.80;50.70;;;;;;4993734;28;20477;-77
2024/02/29 12:32:11;;;;;;;7.70;3.63;;;18.80;50.70;;;;;;4993681;28;21007;-78
2024/02/29 12:34:41;;;;;;;4.13;3.33;;;18.80;50.70;;;;;;4994634;28;20449;-77
2024/02/29 12:37:11;;;;;;;5.87;3.60;;;18.80;50.80;;;;;;4993963;28;20452;-77
2024/02/29 12:39:40;;;;;;;6.27;3.53;;;18.80;50.90;;;;;;4993693;28;20844;-77
2024/02/29 12:42:10;;;;;;;4.37;3.27;;;18.80;50.90;;;;;;4994076;28;20460;-78
2024/02/29 12:44:38;;;;;;;4.40;3.03;;;18.80;51.00;;;;;;4993575;28;20450;-78
2024/02/29 12:47:06;;;;;;;3.73;3.43;;;18.80;51.10;;;;;;4994225;28;20459;-78